KOWB

Owensboro-Daviess County Regional Airport

Owensboro, Kentucky, USA
METAR KOWB 231456Z 02006KT 10SM CLR 24/18 A3013 RMK AO2 SLP210 T02390183 51010
Observed Flight Rules
May-23 @ 14:56 UTC (12 minutes ago) Visual Flight Rules
Wind Visibility Clouds
20° at 6 knots 10 miles
  • Clear skies
Temperatures Readings
Current 24°C / 75°F
Dewpoint 18°C / 64°F
Humidity 69%
Altimeter 30.13" Hg
Pressure 1021 hPa
Elevation 124
METAR KOWB 231456Z 02006KT 10SM CLR 24/18 A3013 RMK AO2 SLP210 T02390183 51010
Observed Flight Rules
May-23 @ 14:56 UTC
(12 minutes ago)
VFR
Wind Visibility
20° at 6 knots 10 miles
Clouds
  • Clear skies
Temperature Dewpoint
24°C / 75°F 18°C / 64°F
Humidity Altimeter Pressure
69% 30.13" Hg 1021 hPa